Data for 03/03/2006

Time Sea-Level Adjusted Pressure Absolute Pressure Temperature Relative Humidity Dew Point   
(mb) (inHg) (mb) (inHg) (C) (F) (%) (C) (F)
00:05 1015 29.97 844 24.92 -2.2 28 70 -7 19.5
00:10 1015 29.97 844 24.92 -2.2 28.1 70 -6.9 19.5
00:15 1015 29.97 844 24.92 -2.2 28.1 70 -6.9 19.5
00:20 1015 29.97 844 24.92 -2 28.5 69 -6.9 19.6
00:25 1015 29.97 844 24.92 -1.9 28.6 69 -6.8 19.7
00:30 1015 29.97 844 24.92 -2 28.4 69 -6.8 19.7
00:35 1015 29.97 845 24.95 -2.4 27.7 72 -6.7 19.9
00:40 1015 29.97 845 24.95 -2.3 27.8 70 -7 19.3
00:45 1015 29.97 845 24.95 -2.3 27.9 70 -7 19.4
00:50 1015 29.97 845 24.95 -2 28.3 69 -7 19.4
00:55 1015 29.97 845 24.95 -2 28.4 69 -7 19.4
01:00 1015 29.97 845 24.95 -1.9 28.5 69 -6.9 19.5
01:05 1016 30 845 24.95 -2 28.4 70 -6.9 19.7
01:10 1016 30 845 24.95 -2.4 27.7 71 -7 19.4
01:15 1015 29.97 845 24.95 -2.7 27.1 72 -7.1 19.3
01:20 1015 29.97 845 24.95 -2.8 27 73 -7 19.3
01:25 1015 29.97 845 24.95 -3 26.6 73 -7.1 19.2
01:30 1015 29.97 845 24.95 -3 26.6 74 -7.1 19.3
01:35 1015 29.97 845 24.95 -3.1 26.4 74 -7.1 19.2
01:40 1015 29.97 845 24.95 -3.2 26.2 74 -7.2 19.1
01:45 1015 29.97 845 24.95 -3.2 26.2 74 -7.2 19
01:50 1015 29.97 845 24.95 -3.2 26.2 74 -7.1 19.1
01:55 1015 29.97 844 24.92 -3.2 26.2 74 -7.2 19
02:00 1015 29.97 844 24.92 -3.3 26.1 74 -7.3 18.9
02:05 1015 29.97 845 24.95 -3.3 26 75 -7.2 19.1
02:10 1015 29.97 845 24.95 -3.4 25.9 75 -7.2 19
02:15 1015 29.97 844 24.92 -3.2 26.2 74 -7.3 18.9
02:20 1015 29.97 844 24.92 -3.2 26.3 74 -7.3 18.9
02:25 1015 29.97 844 24.92 -3 26.5 73 -7.1 19.1
02:30 1015 29.97 844 24.92 -3 26.6 73 -7.2 19
02:35 1015 29.97 844 24.92 -3 26.5 73 -7.1 19.1
02:40 1015 29.97 844 24.92 -3.2 26.3 73 -7.3 18.9
02:45 1015 29.97 844 24.92 -3.1 26.5 73 -7.2 19
02:50 1015 29.97 844 24.92 -3.1 26.5 73 -7.2 19.1
02:55 1015 29.97 844 24.92 -3 26.6 73 -7.2 19.1
03:00 1015 29.97 844 24.92 -3 26.6 73 -7.2 19.1
03:05 1015 29.97 844 24.92 -2.9 26.7 72 -7.2 19
03:10 1015 29.97 844 24.92 -2.8 27 72 -7.1 19.2
03:15 1015 29.97 844 24.92 -2.6 27.2 72 -7.1 19.3
03:20 1014 29.94 844 24.92 -2.9 26.9 73 -7.1 19.2
03:25 1015 29.97 844 24.92 -3.2 26.3 74 -7.3 18.9
03:30 1015 29.97 844 24.92 -3.4 25.8 75 -7.3 18.8
03:35 1014 29.94 844 24.92 -3.5 25.7 75 -7.3 18.9
03:40 1014 29.94 843 24.89 -3.3 26.1 74 -7.2 19
03:45 1014 29.94 843 24.89 -3 26.7 74 -7 19.5
03:50 1014 29.94 843 24.89 -3 26.7 75 -6.9 19.6
03:55 1014 29.94 843 24.89 -3 26.6 74 -6.9 19.5
04:00 1014 29.94 843 24.89 -3 26.7 74 -6.9 19.6
04:05 1014 29.94 843 24.89 -2.9 26.8 74 -6.9 19.5
04:10 1014 29.94 843 24.89 -2.8 27 73 -7 19.5
04:15 1014 29.94 843 24.89 -2.8 26.9 73 -7.1 19.3
04:20 1014 29.94 843 24.89 -2.9 26.8 73 -7.2 19.1
04:25 1014 29.94 843 24.89 -2.9 26.7 72 -7.2 19
04:30 1014 29.94 843 24.89 -3 26.6 73 -7.2 19
04:35 1014 29.94 843 24.89 -3.2 26.3 74 -7.2 19
04:40 1014 29.94 843 24.89 -3.3 26 74 -7.4 18.8
04:45 1014 29.94 843 24.89 -3.4 25.9 74 -7.3 18.8
04:50 1014 29.94 843 24.89 -3.4 25.9 75 -7.2 19
04:55 1014 29.94 843 24.89 -3.4 25.8 74 -7.4 18.8
05:00 1014 29.94 843 24.89 -3.5 25.8 77 -6.9 19.6
05:05 1014 29.94 843 24.89 -3.8 25.2 77 -7.2 19.1
05:10 1014 29.94 843 24.89 -3.6 25.5 76 -7.2 19.1
05:15 1014 29.94 843 24.89 -3.7 25.3 78 -6.9 19.5
05:20 1014 29.94 843 24.89 -4.1 24.7 81 -6.9 19.5
05:25 1014 29.94 843 24.89 -4.4 24.1 83 -6.9 19.5
05:30 1014 29.94 843 24.89 -4.5 23.9 81 -7.3 18.9
05:35 1014 29.94 843 24.89 -4.2 24.4 79 -7.3 18.8
05:40 1014 29.94 843 24.89 -4.2 24.5 78 -7.4 18.7
05:45 1014 29.94 843 24.89 -4 24.7 78 -7.4 18.8
05:50 1014 29.94 843 24.89 -4.1 24.5 79 -7.3 18.9
05:55 1014 29.94 843 24.89 -4.2 24.4 78 -7.5 18.5
06:00 1014 29.94 843 24.89 -4.2 24.4 80 -7.2 19
06:05 1013 29.91 843 24.89 -4.5 23.8 81 -7.3 18.8
06:10 1013 29.91 843 24.89 -4.8 23.3 82 -7.4 18.6
06:15 1013 29.91 843 24.89 -4.5 23.8 80 -7.5 18.6
06:20 1013 29.91 843 24.89 -4.2 24.4 79 -7.4 18.7
06:25 1013 29.91 843 24.89 -4.3 24.3 81 -7.1 19.2
06:30 1014 29.94 843 24.89 -4.7 23.6 81 -7.5 18.6
06:35 1014 29.94 843 24.89 -5.2 22.7 84 -7.5 18.6
06:40 1014 29.94 843 24.89 -5.4 22.2 84 -7.7 18.2
06:45 1014 29.94 843 24.89 -5.9 21.4 86 -7.8 18
06:50 1014 29.94 843 24.89 -6.1 21.1 87 -7.9 17.8
06:55 1014 29.94 843 24.89 -6 21.1 87 -7.9 17.8
07:00 1013 29.91 843 24.89 -6.4 20.5 89 -7.8 17.9
07:05 1013 29.91 843 24.89 -6.7 20 91 -7.9 17.8
07:10 1013 29.91 842 24.86 -6.6 20 91 -7.9 17.8
07:15 1013 29.91 842 24.86 -6.6 20 92 -7.8 18
07:20 1013 29.91 842 24.86 -6.2 20.9 89 -7.7 18.1
07:25 1013 29.91 842 24.86 -5.6 21.9 85 -7.7 18.1
07:30 1013 29.91 842 24.86 -5.4 22.3 84 -7.6 18.2
07:35 1013 29.91 842 24.86 -5.3 22.4 83 -7.7 18.1
07:40 1013 29.91 842 24.86 -5.5 22 86 -7.5 18.4
07:45 1013 29.91 842 24.86 -5.2 22.7 82 -7.7 18.1
07:50 1013 29.91 842 24.86 -5.3 22.4 84 -7.6 18.4
07:55 1013 29.91 842 24.86 -4.8 23.4 80 -7.7 18.1
08:00 1013 29.91 842 24.86 -4.1 24.7 76 -7.6 18.3
08:05 1013 29.91 842 24.86 -3.9 24.9 75 -7.8 18
08:10 1013 29.91 842 24.86 -4.2 24.5 77 -7.6 18.3
08:15 1013 29.91 842 24.86 -4.6 23.7 79 -7.7 18.2
08:20 1013 29.91 842 24.86 -4.4 24 78 -7.7 18.2
08:25 1013 29.91 842 24.86 -4.4 24 79 -7.6 18.3
08:30 1013 29.91 842 24.86 -4.3 24.3 79 -7.3 18.8
08:35 1013 29.91 842 24.86 -3.6 25.5 76 -7.3 18.9
08:40 1013 29.91 842 24.86 -4.1 24.7 79 -7.2 19
08:45 1013 29.91 842 24.86 -3.8 25.2 76 -7.3 18.8
08:50 1013 29.91 842 24.86 -3.2 26.2 75 -7.1 19.3
08:55 1013 29.91 842 24.86 -3.4 25.9 74 -7.4 18.6
09:00 1013 29.91 842 24.86 -2.4 27.7 71 -7 19.4
09:05 1013 29.91 842 24.86 -2.1 28.3 69 -6.9 19.6
09:10 1013 29.91 842 24.86 -2 28.4 69 -6.9 19.6
09:15 1013 29.91 842 24.86 -1.8 28.7 68 -6.9 19.6
09:20 1013 29.91 842 24.86 -1.7 28.9 70 -6.5 20.2
09:25 1013 29.91 842 24.86 -1.9 28.6 69 -6.8 19.7
09:30 1013 29.91 842 24.86 -1.6 29.2 67 -6.9 19.6
09:35 1013 29.91 842 24.86 -1.3 29.6 66 -6.9 19.6
09:40 1013 29.91 842 24.86 -1.2 29.8 65 -6.9 19.5
09:45 1012 29.88 842 24.86 -0.8 30.5 64 -6.9 19.6
09:50 1012 29.88 842 24.86 -0.7 30.7 64 -6.8 19.8
09:55 1012 29.88 842 24.86 -1.5 29.3 69 -6.5 20.2
10:00 1012 29.88 841 24.83 -1.8 28.8 69 -6.8 19.7
10:05 1012 29.88 841 24.83 -1.5 29.3 69 -6.5 20.3
10:10 1012 29.88 841 24.83 -1 30.2 67 -6.4 20.4
10:15 1012 29.88 841 24.83 -0.5 31.1 63 -6.6 20.1
10:20 1012 29.88 841 24.83 -0.8 30.5 65 -6.6 20.2
10:25 1012 29.88 841 24.83 -0.8 30.6 64 -6.7 19.9
10:30 1012 29.88 841 24.83 -0.3 31.4 64 -6.4 20.6
10:35 1012 29.88 841 24.83 -0.4 31.3 63 -6.5 20.3
10:40 1012 29.88 841 24.83 -0.3 31.5 65 -6.2 20.9
10:45 1012 29.88 841 24.83 -0.4 31.3 65 -6.1 21
10:50 1012 29.88 841 24.83 -0.5 31.2 63 -6.7 20
10:55 1011 29.85 841 24.83 0.1 32.2 67 -5.3 22.4
11:00 1011 29.85 841 24.83 -0.1 31.8 62 -6.5 20.3
11:05 1011 29.85 841 24.83 0.9 33.7 60 -6.1 21.1
11:10 1011 29.85 841 24.83 0.6 33.1 61 -6 21.2
11:15 1011 29.85 840 24.81 0.7 33.3 61 -5.8 21.5
11:20 1011 29.85 840 24.81 0.1 32.2 65 -5.6 21.9
11:25 1011 29.85 840 24.81 0.9 33.7 61 -5.8 21.5
11:30 1011 29.85 840 24.81 1.3 34.3 61 -5.4 22.3
11:35 1011 29.85 840 24.81 1.3 34.4 60 -5.7 21.8
11:40 1011 29.85 840 24.81 1.2 34.2 62 -5.3 22.4
11:45 1011 29.85 840 24.81 1.9 35.4 57 -5.7 21.7
11:50 1011 29.85 840 24.81 1.5 34.7 59 -5.6 22
11:55 1011 29.85 840 24.81 2 35.5 58 -5.4 22.4
12:00 1011 29.85 840 24.81 2.7 36.8 57 -5 23
12:05 1011 29.85 840 24.81 1.9 35.5 62 -4.6 23.8
12:10 1011 29.85 840 24.81 2.2 36 57 -5.4 22.2
12:15 1011 29.85 840 24.81 1.7 35 60 -5.3 22.5
12:20 1010 29.83 840 24.81 2.2 36 60 -4.8 23.4
12:25 1010 29.83 840 24.81 2.5 36.5 60 -4.6 23.8
12:30 1010 29.83 839 24.78 2.2 36 61 -4.6 23.7
12:35 1010 29.83 839 24.78 1.6 34.8 61 -5.1 22.8
12:40 1010 29.83 839 24.78 1.9 35.4 60 -5.1 22.9
12:45 1010 29.83 839 24.78 2.2 36 60 -4.8 23.4
12:50 1010 29.83 839 24.78 1.8 35.2 61 -4.9 23.2
12:55 1009 29.8 839 24.78 2.3 36.1 59 -4.9 23.2
13:00 1009 29.8 839 24.78 2.2 36 59 -4.9 23.2
13:05 1009 29.8 838 24.75 2.2 36 60 -4.7 23.5
13:10 1009 29.8 838 24.75 2.4 36.3 58 -4.9 23.1
13:15 1009 29.8 838 24.75 3.3 38 56 -4.7 23.6
13:20 1009 29.8 838 24.75 2.1 35.8 60 -4.9 23.3
13:25 1009 29.8 838 24.75 2.4 36.3 61 -4.3 24.2
13:30 1009 29.8 838 24.75 2.3 36.2 59 -4.9 23.2
13:35 1009 29.8 838 24.75 3.2 37.7 59 -4.1 24.5
13:40 1008 29.77 838 24.75 3.3 38 58 -4.2 24.5
13:45 1008 29.77 838 24.75 3.4 38.2 58 -4 24.8
13:50 1008 29.77 837 24.72 2.4 36.2 65 -3.6 25.5
13:55 1008 29.77 837 24.72 2.1 35.8 62 -4.5 23.9
14:00 1008 29.77 837 24.72 3 37.4 61 -3.8 25.2
14:05 1008 29.77 837 24.72 2.4 36.3 67 -3.1 26.5
14:10 1008 29.77 837 24.72 1.3 34.3 67 -4.1 24.6
14:15 1008 29.77 837 24.72 1.7 35 66 -4.1 24.7
14:20 1008 29.77 837 24.72 2.2 36 65 -3.7 25.4
14:25 1008 29.77 837 24.72 1.8 35.2 65 -4.1 24.7
14:30 1008 29.77 837 24.72 1.7 35 66 -4 24.8
14:35 1007 29.74 837 24.72 2.9 37.1 60 -4.2 24.5
14:40 1008 29.77 837 24.72 2.8 37 61 -3.9 25
14:45 1007 29.74 836 24.69 2.9 37.2 62 -3.8 25.2
14:50 1007 29.74 836 24.69 3 37.4 60 -4 24.8
14:55 1007 29.74 836 24.69 3.1 37.5 61 -3.8 25.2
15:00 1007 29.74 836 24.69 3.8 38.8 60 -3.3 26
15:05 1007 29.74 836 24.69 3.3 37.9 63 -3 26.6
15:10 1007 29.74 836 24.69 3 37.3 63 -3.4 25.8
15:15 1007 29.74 836 24.69 2.6 36.6 68 -2.6 27.2
15:20 1007 29.74 836 24.69 2.4 36.3 67 -3.1 26.5
15:25 1007 29.74 836 24.69 2.6 36.7 66 -3.1 26.3
15:30 1007 29.74 836 24.69 2.6 36.7 64 -3.5 25.8
15:35 1007 29.74 836 24.69 2.7 36.8 67 -2.9 26.8
15:40 1007 29.74 836 24.69 1.9 35.4 70 -3 26.6
15:45 1007 29.74 836 24.69 2.2 35.9 65 -3.7 25.4
15:50 1007 29.74 836 24.69 2.8 37.1 59 -4.4 24
15:55 1007 29.74 836 24.69 3.6 38.5 55 -4.5 23.9
16:00 1007 29.74 836 24.69 3.9 39 55 -4.4 24.1
16:05 1007 29.74 836 24.69 3.8 38.9 57 -4 24.8
16:10 1007 29.74 836 24.69 3.8 38.8 56 -4.1 24.6
16:15 1007 29.74 836 24.69 3.6 38.5 57 -4.2 24.4
16:20 1007 29.74 836 24.69 3.5 38.2 57 -4.2 24.5
16:25 1007 29.74 836 24.69 3.3 37.9 58 -4.3 24.3
16:30 1007 29.74 836 24.69 3.1 37.5 59 -4.2 24.5
16:35 1007 29.74 837 24.72 3 37.4 59 -4.3 24.2
16:40 1008 29.77 837 24.72 3.1 37.7 60 -4 24.9
16:45 1008 29.77 837 24.72 3 37.4 58 -4.4 24.1
16:50 1008 29.77 837 24.72 2.9 37.2 62 -3.7 25.4
16:55 1008 29.77 837 24.72 2.9 37.1 59 -4.3 24.2
17:00 1008 29.77 837 24.72 3 37.3 60 -4.1 24.5
17:05 1008 29.77 837 24.72 3 37.3 60 -4.1 24.7
17:10 1008 29.77 837 24.72 2.7 36.8 64 -3.4 25.8
17:15 1008 29.77 837 24.72 2.5 36.6 61 -4.1 24.6
17:20 1008 29.77 837 24.72 2.6 36.6 59 -4.5 23.9
17:25 1008 29.77 837 24.72 2.7 36.9 58 -4.7 23.6
17:30 1008 29.77 837 24.72 2.9 37.1 58 -4.6 23.8
17:35 1008 29.77 837 24.72 2.9 37.3 57 -4.7 23.5
17:40 1008 29.77 837 24.72 2.8 37.1 57 -4.9 23.3
17:45 1008 29.77 837 24.72 2.7 36.9 58 -4.7 23.5
17:50 1008 29.77 837 24.72 2.7 36.9 58 -4.7 23.6
17:55 1008 29.77 837 24.72 2.8 37 57 -4.9 23.2
18:00 1008 29.77 837 24.72 2.8 37 57 -4.9 23.2
18:05 1007 29.74 837 24.72 2.7 36.9 58 -4.8 23.4
18:10 1007 29.74 837 24.72 2.6 36.7 59 -4.6 23.6
18:15 1007 29.74 837 24.72 2.5 36.5 59 -4.8 23.3
18:20 1007 29.74 837 24.72 2.5 36.6 59 -4.8 23.4
18:25 1007 29.74 837 24.72 2.6 36.8 57 -4.9 23.1
18:30 1007 29.74 837 24.72 2.6 36.7 57 -5 22.9
18:35 1007 29.74 837 24.72 2.6 36.7 57 -5.1 22.9
18:40 1007 29.74 837 24.72 2.6 36.7 56 -5.3 22.5
18:45 1007 29.74 837 24.72 2.7 36.8 56 -5.3 22.5
18:50 1007 29.74 837 24.72 2.7 36.8 56 -5.3 22.5
18:55 1007 29.74 837 24.72 2.8 37 55 -5.3 22.4
19:00 1007 29.74 837 24.72 2.9 37.2 55 -5.3 22.4
19:05 1007 29.74 837 24.72 2.9 37.2 55 -5.3 22.4
19:10 1007 29.74 836 24.69 2.9 37.2 56 -5.1 22.8
19:15 1007 29.74 836 24.69 3 37.3 55 -5.2 22.6
19:20 1007 29.74 836 24.69 3.2 37.7 54 -5.2 22.7
19:25 1007 29.74 836 24.69 3.2 37.8 53 -5.3 22.4
19:30 1007 29.74 836 24.69 3.1 37.6 55 -5.2 22.7
19:35 1007 29.74 837 24.72 2.9 37.3 55 -5.2 22.6
19:40 1007 29.74 836 24.69 2.7 36.8 57 -5 23
19:45 1007 29.74 837 24.72 2.4 36.3 57 -5.2 22.6
19:50 1007 29.74 836 24.69 2.4 36.4 57 -5.2 22.7
19:55 1007 29.74 837 24.72 2.3 36.1 57 -5.3 22.5
20:00 1007 29.74 837 24.72 2.3 36.2 58 -5.2 22.6
20:05 1007 29.74 836 24.69 2.2 36 58 -5.3 22.5
20:10 1007 29.74 836 24.69 2 35.7 59 -5.2 22.7
20:15 1007 29.74 836 24.69 1.8 35.3 59 -5.3 22.5
20:20 1007 29.74 837 24.72 1.7 35.1 60 -5.3 22.4
20:25 1007 29.74 836 24.69 1.6 35 61 -5.1 22.8
20:30 1007 29.74 837 24.72 1.3 34.4 61 -5.3 22.5
20:35 1007 29.74 837 24.72 1.4 34.4 61 -5.4 22.2
20:40 1007 29.74 837 24.72 1.6 35 60 -5.4 22.4
20:45 1007 29.74 836 24.69 1.8 35.2 60 -5.2 22.7
20:50 1007 29.74 837 24.72 1.7 35 61 -5 22.9
20:55 1007 29.74 836 24.69 1.6 34.9 61 -5.2 22.6
21:00 1007 29.74 836 24.69 1.6 34.8 61 -5.1 22.8
21:05 1007 29.74 836 24.69 1.4 34.5 62 -5.1 22.8
21:10 1007 29.74 836 24.69 1.2 34.2 62 -5.2 22.6
21:15 1007 29.74 836 24.69 1.3 34.3 62 -5.2 22.7
21:20 1007 29.74 836 24.69 1.3 34.3 62 -5.2 22.7
21:25 1007 29.74 836 24.69 1.3 34.3 61 -5.4 22.2
21:30 1007 29.74 836 24.69 1.3 34.3 62 -5.3 22.5
21:35 1007 29.74 836 24.69 1.3 34.3 62 -5.2 22.6
21:40 1007 29.74 836 24.69 1.1 34.1 63 -5 22.9
21:45 1007 29.74 836 24.69 1 33.8 64 -5.1 22.8
21:50 1007 29.74 836 24.69 1.2 34.1 63 -5.2 22.7
21:55 1007 29.74 836 24.69 1.1 34 63 -5.1 22.9
22:00 1007 29.74 836 24.69 0.8 33.4 65 -5 23
22:05 1007 29.74 836 24.69 0.8 33.4 64 -5.2 22.6
22:10 1007 29.74 836 24.69 0.8 33.5 65 -5.1 22.9
22:15 1007 29.74 836 24.69 0.7 33.3 65 -5.2 22.7
22:20 1007 29.74 836 24.69 0.9 33.6 65 -5 23
22:25 1007 29.74 836 24.69 0.8 33.4 65 -5 22.9
22:30 1007 29.74 836 24.69 0.5 32.9 66 -5 23
22:35 1007 29.74 836 24.69 0.5 32.9 66 -5.1 22.9
22:40 1007 29.74 836 24.69 0.5 32.9 67 -5 23
22:45 1007 29.74 836 24.69 0.5 33 66 -5.1 22.8
22:50 1007 29.74 836 24.69 0.6 33.1 66 -5 22.9
22:55 1007 29.74 836 24.69 0.6 33 67 -5 23.1
23:00 1007 29.74 836 24.69 0.4 32.7 67 -5 23.1
23:05 1007 29.74 836 24.69 0.4 32.7 67 -5 23
23:10 1007 29.74 836 24.69 0.4 32.8 67 -5 23.1
23:15 1007 29.74 836 24.69 0.5 32.9 67 -4.9 23.2
23:20 1007 29.74 836 24.69 0.5 32.8 67 -4.9 23.1
23:25 1007 29.74 836 24.69 0.5 32.9 67 -4.9 23.1
23:30 1007 29.74 836 24.69 0.8 33.5 66 -4.8 23.4
23:35 1007 29.74 836 24.69 1 33.8 66 -4.7 23.6
23:40 1007 29.74 836 24.69 1.1 34.1 66 -4.5 23.9
23:45 1007 29.74 836 24.69 1.2 34.2 67 -4.3 24.2
23:50 1007 29.74 836 24.69 1.2 34.1 68 -4.1 24.6
23:55 1007 29.74 836 24.69 1.2 34.2 68 -4.1 24.7
24:00 1007 29.74 836 24.69 0.9 33.7 70 -4 24.9